LLBGLLET

Guest
Details From LLBG - Tel Aviv Ben Gurion
To LLET - EILAT
Flight Number -
Tags generated
Created
Modified
Stats Distance 147 nm / 273 km
Max Altitude 11,400 ft / 3,475 m
Waypoints 3
Social Downloads 0
Likes 0
Share VATSIM

Download

Looking for another format? Having issues loading an existing format? Contact us
Advertisement - Login to hide

Notes

Basic altitude profile: - Ascent Rate: 2500ft/min - Ascent Speed: 250kts - Cruise Altitude: 35000ft - Cruise Speed: 420kts - Descent Rate: 1500ft/min - Descent Speed: 250kts Options: - Use NATs: yes - Use PACOTS: yes - Use low airways: no - Use high airways: yes

Route

LLBG GEVES LLET

ID Type Via Altitude Latitude Longitude Leg Dist Tot Dist Heading (true) Name
O LLBG APT - 0 ft / 0 m 32.01147˚ 34.88506˚ - 0 nm - Tel Aviv Ben Gurion
GEVES FIX - 11,400 ft / 3,475 m 30.44948˚ 34.93913˚ 93 nm 93 nm 178° / 178° -
O LLET APT - 0 ft / 0 m 29.56127˚ 34.96011˚ 53 nm 147 nm 179° / 179° EILAT

Altitude Profile

Advertisement - Login to hide

LLBG

Details ICAO LLBG (TLV)
Name Tel Aviv Ben Gurion
Region Israel
Timezone Asia/Jerusalem (UTC+3.0)
Stats Elevation 135 ft / 41 m (AMSL)
Location 32.011468° 34.885059°
Runways 3
Magnetic Variation 4.722° E

METAR

LLBG 211520Z 33007KT CAVOK 33/11 Q1011 NOSIG

Decode

TAF

TAF LLBG 211110Z 2112/2212 32010KT CAVOK BECMG 2116/2118 04005KT BECMG 2120/2122 VRB03KT BECMG 2207/2209 30008KT TX34/2112Z TN20/2203Z

Decode

Departure Runways

ID Width Length Bearing (true) Bearing (mag) Surface Threshold Offset Overrun Length
03 148 ft / 45 m 5,792 ft / 1,765 m 28.88° 24.16° Asphalt 0 ft / 0 m 216 ft / 66 m
08 148 ft / 45 m 12,017 ft / 3,663 m 79.72° 75.00° Asphalt 0 ft / 0 m 295 ft / 90 m
12 148 ft / 45 m 10,279 ft / 3,133 m 121.54° 116.82° Asphalt 0 ft / 0 m 328 ft / 100 m
21 148 ft / 45 m 5,792 ft / 1,765 m 208.88° 204.16° Asphalt 0 ft / 0 m 216 ft / 66 m
26 148 ft / 45 m 12,017 ft / 3,663 m 259.74° 255.02° Asphalt 1,969 ft / 600 m 205 ft / 62 m
30 148 ft / 45 m 10,279 ft / 3,133 m 301.56° 296.84° Asphalt 246 ft / 75 m 347 ft / 106 m

LLET

Details ICAO LLET (ETH)
Name EILAT
Region Israel
Timezone Asia/Jerusalem (UTC+3.0)
Stats Elevation 42 ft / 13 m (AMSL)
Location 29.561268° 34.960111°
Runways 1
Magnetic Variation 4.464° E

METAR

LLET 211450Z 02017KT CAVOK 41/M02 Q1008

Decode

TAF

TAF LLET 211109Z 2112/2212 02018KT CAVOK BECMG 2117/2119 34010KT BECMG 2206/2208 04007KT PROB40 2210/2212 18005KT TX41/2112Z TN28/2203Z

Decode

Destination Runways

ID Width Length Bearing (true) Bearing (mag) Surface Threshold Offset Overrun Length
03 89 ft / 27 m 6,249 ft / 1,905 m 27.93° 23.47° Asphalt 945 ft / 288 m 125 ft / 38 m
21 89 ft / 27 m 6,249 ft / 1,905 m 207.93° 203.47° Asphalt 0 ft / 0 m 0 ft / 0 m

Popular Alternatives